createdAt,value
2022-08-01T00:01:32.614Z,100244.77
2022-08-01T00:04:01.259Z,100241.77
2022-08-01T00:06:29.704Z,100242.17
2022-08-01T00:08:58.161Z,100243.03
2022-08-01T00:11:26.421Z,100243.57
2022-08-01T00:13:54.807Z,100236.78
2022-08-01T00:16:23.330Z,100234.88
2022-08-01T00:18:51.899Z,100230.73
2022-08-01T00:21:20.162Z,100229.85
2022-08-01T00:23:48.985Z,100227.98
2022-08-01T00:26:17.566Z,100223.77
2022-08-01T00:28:45.842Z,100224.70
2022-08-01T00:31:14.179Z,100224.13
2022-08-01T00:33:42.451Z,100217.02
2022-08-01T00:36:10.621Z,100217.51
2022-08-01T00:38:38.986Z,100212.42
2022-08-01T00:41:07.499Z,100217.14
2022-08-01T00:43:35.762Z,100212.40
2022-08-01T00:46:04.177Z,100212.02
2022-08-01T00:48:32.570Z,100213.30
2022-08-01T00:51:00.854Z,100212.97
2022-08-01T00:53:38.769Z,100215.10
2022-08-01T00:56:18.161Z,100215.16
2022-08-01T00:58:46.646Z,100221.49
2022-08-01T01:01:15.358Z,100224.31
2022-08-01T01:03:58.553Z,100225.73
2022-08-01T01:06:32.055Z,100219.57
2022-08-01T01:09:11.878Z,100219.21
2022-08-01T01:11:47.488Z,100219.27
2022-08-01T01:14:24.729Z,100220.20
2022-08-01T01:16:54.343Z,100221.83
2022-08-01T01:19:29.069Z,100219.33
2022-08-01T01:22:09.773Z,100222.79
2022-08-01T01:24:41.815Z,100217.96
2022-08-01T01:27:19.502Z,100221.09
2022-08-01T01:29:59.476Z,100217.67
2022-08-01T01:32:34.549Z,100219.13
2022-08-01T01:35:07.765Z,100215.73
2022-08-01T01:37:37.632Z,100214.53
2022-08-01T01:40:08.721Z,100216.63
2022-08-01T01:42:37.947Z,100216.31
2022-08-01T01:45:07.893Z,100217.00
2022-08-01T01:47:38.356Z,100216.77
2022-08-01T01:50:10.301Z,100218.15
2022-08-01T01:52:40.468Z,100216.88
2022-08-01T01:55:10.267Z,100216.20
2022-08-01T01:57:40.241Z,100222.89
2022-08-01T02:00:11.104Z,100220.00
2022-08-01T02:02:40.166Z,100222.29
2022-08-01T02:05:11.839Z,100221.63
2022-08-01T02:07:40.555Z,100215.36
2022-08-01T02:10:11.940Z,100215.02
2022-08-01T02:12:43.131Z,100215.20
2022-08-01T02:15:17.045Z,100215.45
2022-08-01T02:17:47.641Z,100210.85
2022-08-01T02:20:17.034Z,100210.29
2022-08-01T02:22:53.363Z,100210.26
2022-08-01T02:25:26.966Z,100212.10
2022-08-01T02:28:02.152Z,100215.27
2022-08-01T02:30:35.698Z,100217.40
2022-08-01T02:33:15.386Z,100218.88
2022-08-01T02:36:28.851Z,100218.03
2022-08-01T02:38:38.999Z,100222.25
2022-08-01T02:41:10.738Z,100221.04
2022-08-01T02:43:41.759Z,100221.77
2022-08-01T02:46:24.876Z,100221.63
2022-08-01T02:48:54.626Z,100220.98
2022-08-01T02:51:25.096Z,100226.97
2022-08-01T02:53:53.692Z,100228.56
2022-08-01T02:56:23.796Z,100226.25
2022-08-01T02:58:53.830Z,100227.89
2022-08-01T03:01:24.198Z,100226.70
2022-08-01T03:03:56.027Z,100231.45
2022-08-01T03:06:25.248Z,100229.27
2022-08-01T03:08:54.272Z,100233.44
2022-08-01T03:11:22.875Z,100232.32
2022-08-01T03:13:53.761Z,100235.15
2022-08-01T03:16:23.391Z,100232.80
2022-08-01T03:18:53.706Z,100236.66
2022-08-01T03:21:22.875Z,100232.17
2022-08-01T03:23:55.266Z,100229.02
2022-08-01T03:26:25.814Z,100230.48
2022-08-01T03:28:58.148Z,100228.77
2022-08-01T03:31:26.846Z,100227.41
2022-08-01T03:33:55.254Z,100224.77
2022-08-01T03:36:27.358Z,100230.65
2022-08-01T03:38:58.294Z,100233.98
2022-08-01T03:41:30.031Z,100233.70
2022-08-01T03:44:06.231Z,100237.14
2022-08-01T03:46:40.361Z,100244.31
2022-08-01T03:49:15.074Z,100244.10
2022-08-01T03:51:45.552Z,100248.31
2022-08-01T03:54:15.291Z,100248.69
2022-08-01T03:56:44.596Z,100250.90
2022-08-01T03:59:13.838Z,100249.39
2022-08-01T04:01:42.414Z,100253.89
2022-08-01T04:04:11.783Z,100254.22
2022-08-01T04:06:40.191Z,100261.30
2022-08-01T04:09:13.392Z,100263.80
2022-08-01T04:11:41.800Z,100267.00
2022-08-01T04:14:10.285Z,100269.83
2022-08-01T04:16:38.754Z,100271.55
2022-08-01T04:19:08.346Z,100272.28
2022-08-01T04:21:37.694Z,100275.00
2022-08-01T04:24:11.890Z,100274.98
2022-08-01T04:26:41.397Z,100278.61
2022-08-01T04:29:11.020Z,100280.64
2022-08-01T04:31:40.772Z,100280.42
2022-08-01T04:34:10.485Z,100281.19
2022-08-01T04:36:42.515Z,100284.61
2022-08-01T04:39:11.323Z,100282.63
2022-08-01T04:41:40.332Z,100286.48
2022-08-01T04:44:08.863Z,100285.77
2022-08-01T04:46:38.173Z,100288.23
2022-08-01T04:49:09.363Z,100288.29
2022-08-01T04:51:37.803Z,100281.88
2022-08-01T04:54:07.850Z,100278.92
2022-08-01T04:56:36.269Z,100284.13
2022-08-01T04:59:19.991Z,100281.20
2022-08-01T05:01:52.310Z,100287.19
2022-08-01T05:04:20.984Z,100289.52
2022-08-01T05:06:51.089Z,100292.80
2022-08-01T05:09:19.482Z,100292.81
2022-08-01T05:11:48.184Z,100291.14
2022-08-01T05:14:16.655Z,100297.93
2022-08-01T05:16:46.324Z,100295.54
2022-08-01T05:19:14.669Z,100301.07
2022-08-01T05:21:42.963Z,100302.73
2022-08-01T05:24:11.604Z,100304.63
2022-08-01T05:26:40.914Z,100307.52
2022-08-01T05:29:09.287Z,100304.75
2022-08-01T05:31:37.765Z,100311.06
2022-08-01T05:34:06.257Z,100311.52
2022-08-01T05:36:44.157Z,100313.44
2022-08-01T05:39:12.934Z,100313.29
2022-08-01T05:41:41.591Z,100316.80
2022-08-01T05:44:10.613Z,100321.02
2022-08-01T05:46:39.550Z,100318.37
2022-08-01T05:49:07.993Z,100321.20
2022-08-01T05:51:36.552Z,100319.13
2022-08-01T05:54:05.514Z,100322.14
2022-08-01T05:56:36.294Z,100321.73
2022-08-01T05:59:05.797Z,100321.95
2022-08-01T06:01:35.139Z,100325.23
2022-08-01T06:04:04.518Z,100326.46
2022-08-01T06:06:33.838Z,100328.83
2022-08-01T06:09:02.765Z,100327.27
2022-08-01T06:11:31.524Z,100326.52
2022-08-01T06:14:00.721Z,100327.73
2022-08-01T06:16:35.066Z,100324.20
2022-08-01T06:19:04.458Z,100321.41
2022-08-01T06:21:33.837Z,100322.32
2022-08-01T06:24:15.465Z,100322.19
2022-08-01T06:26:44.848Z,100325.35
2022-08-01T06:29:14.159Z,100327.86
2022-08-01T06:31:42.978Z,100324.66
2022-08-01T06:34:11.812Z,100323.94
2022-08-01T06:36:40.394Z,100327.13
2022-08-01T06:39:08.983Z,100328.45
2022-08-01T06:41:37.248Z,100332.70
2022-08-01T06:44:06.270Z,100332.30
2022-08-01T06:46:35.229Z,100334.06
2022-08-01T06:49:04.697Z,100337.84
2022-08-01T06:51:33.122Z,100337.17
2022-08-01T06:54:01.675Z,100333.88
2022-08-01T06:56:30.471Z,100336.48
2022-08-01T06:59:01.347Z,100332.61
2022-08-01T07:01:30.340Z,100335.99
2022-08-01T07:04:03.408Z,100336.52
2022-08-01T07:06:32.664Z,100332.70
2022-08-01T07:09:07.425Z,100328.77
2022-08-01T07:11:39.635Z,100334.95
2022-08-01T07:14:08.322Z,100328.97
2022-08-01T07:16:36.709Z,100330.94
2022-08-01T07:19:05.278Z,100333.63
2022-08-01T07:21:40.649Z,100328.35
2022-08-01T07:24:13.606Z,100330.88
2022-08-01T07:26:52.452Z,100326.02
2022-08-01T07:29:24.266Z,100334.15
2022-08-01T07:31:53.467Z,100328.23
2022-08-01T07:34:22.650Z,100324.79
2022-08-01T07:36:51.454Z,100320.68
2022-08-01T07:39:21.932Z,100318.27
2022-08-01T07:42:06.627Z,100321.38
2022-08-01T07:44:38.171Z,100318.86
2022-08-01T07:47:07.307Z,100317.05
2022-08-01T07:49:40.249Z,100317.41
2022-08-01T07:52:09.807Z,100319.27
2022-08-01T07:54:40.621Z,100318.94
2022-08-01T07:57:10.944Z,100313.02
2022-08-01T07:59:39.784Z,100312.57
2022-08-01T08:02:10.179Z,100314.38
2022-08-01T08:04:40.078Z,100313.37
2022-08-01T08:07:11.451Z,100313.41
2022-08-01T08:09:40.140Z,100313.77
2022-08-01T08:12:10.501Z,100314.83
2022-08-01T08:14:39.299Z,100310.72
2022-08-01T08:17:08.774Z,100316.51
2022-08-01T08:19:39.342Z,100320.42
2022-08-01T08:22:09.245Z,100320.87
2022-08-01T08:24:45.465Z,100322.16
2022-08-01T08:27:17.227Z,100321.66
2022-08-01T08:29:48.899Z,100322.90
2022-08-01T08:32:17.381Z,100321.05
2022-08-01T08:34:46.634Z,100322.88
2022-08-01T08:37:15.256Z,100320.02
2022-08-01T08:39:44.568Z,100325.54
2022-08-01T08:42:14.132Z,100331.00
2022-08-01T08:44:44.718Z,100334.41
2022-08-01T08:47:19.049Z,100334.58
2022-08-01T08:49:50.682Z,100341.30
2022-08-01T08:52:21.456Z,100339.11
2022-08-01T08:54:51.148Z,100344.08
2022-08-01T08:57:21.832Z,100347.40
2022-08-01T08:59:54.752Z,100343.77
2022-08-01T09:02:23.581Z,100346.77
2022-08-01T09:04:52.090Z,100345.65
2022-08-01T09:07:21.619Z,100346.29
2022-08-01T09:10:01.459Z,100351.27
2022-08-01T09:13:20.866Z,100350.29
2022-08-01T09:15:54.907Z,100355.30
2022-08-01T09:18:41.375Z,100357.77
2022-08-01T09:21:15.375Z,100358.52
2022-08-01T09:23:53.434Z,100353.73
2022-08-01T09:26:32.730Z,100353.56
2022-08-01T09:29:05.615Z,100355.17
2022-08-01T09:31:47.207Z,100355.47
2022-08-01T09:34:19.891Z,100355.75
2022-08-01T09:36:56.258Z,100358.02
2022-08-01T09:39:28.214Z,100358.60
2022-08-01T09:42:02.304Z,100359.06
2022-08-01T09:44:44.751Z,100363.40
2022-08-01T09:47:15.580Z,100354.28
2022-08-01T09:49:50.558Z,100352.16
2022-08-01T09:52:27.870Z,100354.36
2022-08-01T09:55:02.526Z,100356.88
2022-08-01T09:57:31.272Z,100357.59
2022-08-01T10:00:01.821Z,100356.05
2022-08-01T10:02:34.187Z,100356.16
2022-08-01T10:05:08.439Z,100352.69
2022-08-01T10:07:55.995Z,100349.10
2022-08-01T10:10:29.159Z,100347.42
2022-08-01T10:13:00.775Z,100346.66
2022-08-01T10:15:36.778Z,100344.60
2022-08-01T10:18:16.547Z,100345.04
2022-08-01T10:20:56.686Z,100347.73
2022-08-01T10:23:40.453Z,100348.42
2022-08-01T10:26:12.024Z,100347.98
2022-08-01T10:28:40.922Z,100344.92
2022-08-01T10:31:14.509Z,100343.47
2022-08-01T10:33:50.353Z,100340.06
2022-08-01T10:36:23.419Z,100344.86
2022-08-01T10:38:56.157Z,100349.58
2022-08-01T10:41:26.261Z,100350.10
2022-08-01T10:43:56.735Z,100345.55
2022-08-01T10:46:25.517Z,100354.39
2022-08-01T10:49:01.092Z,100351.77
2022-08-01T10:51:52.904Z,100344.39
2022-08-01T10:54:19.162Z,100341.16
2022-08-01T10:56:52.517Z,100341.21
2022-08-01T10:59:50.351Z,100341.20
2022-08-01T11:02:10.727Z,100337.86
2022-08-01T11:04:52.636Z,100339.56
2022-08-01T11:07:25.986Z,100339.26
2022-08-01T11:10:05.759Z,100336.70
2022-08-01T11:12:44.165Z,100335.33
2022-08-01T11:15:29.818Z,100337.34
2022-08-01T11:18:01.109Z,100332.36
2022-08-01T11:20:33.762Z,100331.75
2022-08-01T11:23:36.100Z,100331.76
2022-08-01T11:26:47.341Z,100335.80
2022-08-01T11:29:22.087Z,100337.91
2022-08-01T11:31:53.070Z,100338.89
2022-08-01T11:34:56.762Z,100333.95
2022-08-01T11:37:32.955Z,100340.70
2022-08-01T11:40:18.754Z,100335.23
2022-08-01T11:42:49.240Z,100330.52
2022-08-01T11:45:18.765Z,100330.74
2022-08-01T11:47:49.851Z,100328.61
2022-08-01T11:50:37.756Z,100330.83
2022-08-01T11:53:08.909Z,100332.03
2022-08-01T11:55:51.263Z,100329.24
2022-08-01T11:58:29.463Z,100327.38
2022-08-01T12:01:00.655Z,100330.06
2022-08-01T12:03:33.442Z,100329.95
2022-08-01T12:06:02.968Z,100328.83
2022-08-01T12:08:35.307Z,100329.11
2022-08-01T12:11:06.949Z,100328.47
2022-08-01T12:13:43.748Z,100325.48
2022-08-01T12:16:12.916Z,100325.49
2022-08-01T12:18:42.995Z,100323.14
2022-08-01T12:21:11.315Z,100321.70
2022-08-01T12:23:40.662Z,100320.16
2022-08-01T12:26:09.230Z,100318.20
2022-08-01T12:28:57.618Z,100323.30
2022-08-01T12:31:35.553Z,100323.66
2022-08-01T12:34:29.177Z,100320.48
2022-08-01T12:37:00.369Z,100320.73
2022-08-01T12:39:33.896Z,100318.80
2022-08-01T12:42:01.531Z,100319.27
2022-08-01T12:44:31.497Z,100317.59
2022-08-01T12:47:05.653Z,100315.41
2022-08-01T12:49:38.858Z,100316.54
2022-08-01T12:52:12.858Z,100319.36
2022-08-01T12:55:09.597Z,100320.98
2022-08-01T12:57:41.885Z,100319.91
2022-08-01T13:00:17.963Z,100315.03
2022-08-01T13:02:48.026Z,100310.16
2022-08-01T13:05:21.277Z,100308.73
2022-08-01T13:07:52.831Z,100307.48
2022-08-01T13:10:31.820Z,100306.70
2022-08-01T13:13:01.798Z,100305.01
2022-08-01T13:15:33.492Z,100300.16
2022-08-01T13:18:24.407Z,100297.27
2022-08-01T13:21:24.202Z,100304.86
2022-08-01T13:24:20.385Z,100304.45
2022-08-01T13:26:57.305Z,100304.21
2022-08-01T13:29:34.329Z,100305.36
2022-08-01T13:32:29.487Z,100303.30
2022-08-01T13:35:04.907Z,100300.19
2022-08-01T13:37:34.871Z,100301.38
2022-08-01T13:40:07.577Z,100304.91
2022-08-01T13:42:36.352Z,100305.05
2022-08-01T13:45:14.618Z,100306.46
2022-08-01T13:48:12.268Z,100306.71
2022-08-01T13:50:34.656Z,100307.86
2022-08-01T13:53:03.441Z,100301.04
2022-08-01T13:55:34.926Z,100299.13
2022-08-01T13:58:06.292Z,100304.52
2022-08-01T14:00:39.497Z,100307.02
2022-08-01T14:03:26.592Z,100306.77
2022-08-01T14:06:45.663Z,100307.53
2022-08-01T14:09:23.799Z,100308.29
2022-08-01T14:11:53.373Z,100310.80
2022-08-01T14:14:22.173Z,100311.64
2022-08-01T14:16:58.017Z,100312.54
2022-08-01T14:19:38.854Z,100309.33
2022-08-01T14:22:09.527Z,100308.61
2022-08-01T14:24:39.387Z,100312.70
2022-08-01T14:27:10.027Z,100317.34
2022-08-01T14:30:03.217Z,100321.42
2022-08-01T14:32:28.993Z,100321.06
2022-08-01T14:34:57.875Z,100323.58
2022-08-01T14:37:28.703Z,100326.03
2022-08-01T14:39:58.843Z,100327.62
2022-08-01T14:42:28.866Z,100329.71
2022-08-01T14:44:57.507Z,100325.80
2022-08-01T14:47:27.919Z,100326.32
2022-08-01T14:49:56.849Z,100325.48
2022-08-01T14:52:25.341Z,100318.71
2022-08-01T14:54:55.151Z,100322.55
2022-08-01T14:57:23.897Z,100322.06
2022-08-01T14:59:55.761Z,100322.65
2022-08-01T15:02:25.641Z,100325.45
2022-08-01T15:04:54.032Z,100321.42
2022-08-01T15:07:22.674Z,100329.01
2022-08-01T15:09:51.313Z,100326.83
2022-08-01T15:12:20.313Z,100326.80
2022-08-01T15:14:48.982Z,100324.13
2022-08-01T15:17:19.083Z,100327.96
2022-08-01T15:19:52.027Z,100331.16
2022-08-01T15:22:22.411Z,100334.94
2022-08-01T15:24:56.863Z,100338.45
2022-08-01T15:27:26.911Z,100340.35
2022-08-01T15:29:55.905Z,100340.60
2022-08-01T15:32:25.536Z,100337.23
2022-08-01T15:34:54.606Z,100334.47
2022-08-01T15:37:23.361Z,100335.73
2022-08-01T15:39:56.520Z,100335.23
2022-08-01T15:42:27.038Z,100333.70
2022-08-01T15:44:55.837Z,100336.60
2022-08-01T15:47:24.827Z,100336.45
2022-08-01T15:49:56.128Z,100334.51
2022-08-01T15:52:31.484Z,100329.05
2022-08-01T15:55:00.898Z,100328.84
2022-08-01T15:57:29.257Z,100327.57
2022-08-01T15:59:57.890Z,100328.03
2022-08-01T16:02:28.482Z,100335.00
2022-08-01T16:04:57.034Z,100333.85
2022-08-01T16:07:25.406Z,100333.04
2022-08-01T16:09:53.998Z,100335.77
2022-08-01T16:12:24.674Z,100338.61
2022-08-01T16:14:53.794Z,100339.00
2022-08-01T16:17:22.739Z,100337.68
2022-08-01T16:19:51.450Z,100340.86
2022-08-01T16:22:20.131Z,100341.52
2022-08-01T16:24:48.924Z,100341.55
2022-08-01T16:27:17.424Z,100341.23
2022-08-01T16:29:46.221Z,100345.62
2022-08-01T16:32:43.615Z,100346.95
2022-08-01T16:35:04.367Z,100345.66
2022-08-01T16:37:33.117Z,100349.38
2022-08-01T16:40:01.663Z,100349.90
2022-08-01T16:42:31.199Z,100349.05
2022-08-01T16:44:59.716Z,100347.17
2022-08-01T16:47:28.564Z,100354.34
2022-08-01T16:49:56.988Z,100352.55
2022-08-01T16:52:28.663Z,100349.14
2022-08-01T16:54:57.498Z,100348.63
2022-08-01T16:57:26.384Z,100345.80
2022-08-01T16:59:55.001Z,100350.61
2022-08-01T17:02:24.782Z,100352.35
2022-08-01T17:04:53.264Z,100351.52
2022-08-01T17:07:22.213Z,100351.41
2022-08-01T17:09:50.756Z,100354.63
2022-08-01T17:12:22.250Z,100357.45
2022-08-01T17:14:51.395Z,100360.34
2022-08-01T17:17:20.064Z,100359.91
2022-08-01T17:19:49.127Z,100364.67
2022-08-01T17:22:18.311Z,100366.24
2022-08-01T17:24:47.258Z,100367.02
2022-08-01T17:27:16.135Z,100371.27
2022-08-01T17:29:46.691Z,100367.80
2022-08-01T17:32:15.597Z,100371.94
2022-08-01T17:34:44.312Z,100373.66
2022-08-01T17:37:13.237Z,100373.52
2022-08-01T17:39:42.582Z,100373.82
2022-08-01T17:42:11.854Z,100372.57
2022-08-01T17:44:41.605Z,100372.30
2022-08-01T17:47:10.884Z,100371.48
2022-08-01T17:49:54.243Z,100377.75
2022-08-01T17:52:26.049Z,100379.59
2022-08-01T17:54:58.851Z,100381.14
2022-08-01T17:57:28.084Z,100379.67
2022-08-01T17:59:58.023Z,100381.73
2022-08-01T18:02:26.543Z,100383.11
2022-08-01T18:04:55.365Z,100385.33
2022-08-01T18:08:01.566Z,100386.20
2022-08-01T18:10:13.283Z,100386.11
2022-08-01T18:12:45.143Z,100389.96
2022-08-01T18:15:15.273Z,100385.53
2022-08-01T18:17:43.830Z,100387.06
2022-08-01T18:20:13.013Z,100384.25
2022-08-01T18:22:41.921Z,100391.40
2022-08-01T18:25:12.244Z,100391.51
2022-08-01T18:28:22.259Z,100393.66
2022-08-01T18:30:29.978Z,100396.73
2022-08-01T18:32:58.534Z,100396.30
2022-08-01T18:35:51.369Z,100396.54
2022-08-01T18:38:15.526Z,100398.45
2022-08-01T18:40:44.020Z,100400.71
2022-08-01T18:43:12.383Z,100404.34
2022-08-01T18:45:42.945Z,100407.65
2022-08-01T18:48:12.243Z,100410.77
2022-08-01T18:50:40.864Z,100413.34
2022-08-01T18:53:11.012Z,100415.00
2022-08-01T18:55:39.232Z,100418.02
2022-08-01T18:58:07.973Z,100420.42
2022-08-01T19:00:36.435Z,100423.32
2022-08-01T19:03:04.918Z,100425.25
2022-08-01T19:05:35.147Z,100423.77
2022-08-01T19:08:07.794Z,100424.55
2022-08-01T19:10:36.834Z,100428.88
2022-08-01T19:13:05.116Z,100428.63
2022-08-01T19:15:33.814Z,100429.54
2022-08-01T19:18:02.701Z,100431.40
2022-08-01T19:20:31.247Z,100435.34
2022-08-01T19:23:19.881Z,100436.72
2022-08-01T19:25:55.327Z,100438.20
2022-08-01T19:28:25.967Z,100440.67
2022-08-01T19:30:55.639Z,100440.34
2022-08-01T19:33:24.020Z,100442.19
2022-08-01T19:35:53.632Z,100441.11
2022-08-01T19:38:22.582Z,100442.36
2022-08-01T19:40:51.168Z,100447.74
2022-08-01T19:43:20.998Z,100450.87
2022-08-01T19:45:50.956Z,100451.80
2022-08-01T19:48:22.192Z,100455.57
2022-08-01T19:50:51.692Z,100453.15
2022-08-01T19:53:23.558Z,100449.36
2022-08-01T19:55:52.992Z,100445.89
2022-08-01T19:58:27.765Z,100443.04
2022-08-01T20:00:56.711Z,100447.80
2022-08-01T20:03:27.668Z,100448.99
2022-08-01T20:05:56.349Z,100450.48
2022-08-01T20:08:25.424Z,100451.52
2022-08-01T20:10:53.725Z,100456.50
2022-08-01T20:13:22.388Z,100455.63
2022-08-01T20:15:52.227Z,100455.11
2022-08-01T20:18:21.298Z,100455.22
2022-08-01T20:20:51.118Z,100458.56
2022-08-01T20:23:24.530Z,100457.25
2022-08-01T20:25:57.785Z,100460.81
2022-08-01T20:28:27.754Z,100461.54
2022-08-01T20:31:03.513Z,100459.10
2022-08-01T20:33:36.000Z,100461.34
2022-08-01T20:36:05.517Z,100461.08
2022-08-01T20:38:42.505Z,100458.39
2022-08-01T20:41:11.237Z,100460.23
2022-08-01T20:43:39.670Z,100459.50
2022-08-01T20:46:08.328Z,100462.02
2022-08-01T20:48:36.836Z,100458.00
2022-08-01T20:51:17.047Z,100454.82
2022-08-01T20:53:48.579Z,100455.30
2022-08-01T20:56:20.416Z,100456.81
2022-08-01T20:59:00.325Z,100456.25
2022-08-01T21:01:30.085Z,100456.90
2022-08-01T21:04:09.057Z,100458.31
2022-08-01T21:06:38.973Z,100458.42
2022-08-01T21:09:07.391Z,100458.14
2022-08-01T21:11:42.589Z,100460.48
2022-08-01T21:14:12.806Z,100462.60
2022-08-01T21:16:46.426Z,100466.66
2022-08-01T21:19:21.375Z,100468.23
2022-08-01T21:21:54.910Z,100467.05
2022-08-01T21:24:28.929Z,100467.55
2022-08-01T21:26:58.344Z,100465.84
2022-08-01T21:29:27.458Z,100464.71
2022-08-01T21:32:10.812Z,100464.93
2022-08-01T21:34:40.367Z,100465.06
2022-08-01T21:37:10.203Z,100470.59
2022-08-01T21:39:38.926Z,100471.30
2022-08-01T21:42:09.564Z,100474.76
2022-08-01T21:44:39.713Z,100474.11
2022-08-01T21:47:11.771Z,100474.69
2022-08-01T21:49:41.495Z,100471.65
2022-08-01T21:52:14.695Z,100471.15
2022-08-01T21:54:57.344Z,100468.95
2022-08-01T21:57:38.161Z,100472.27
2022-08-01T22:00:10.081Z,100471.44
2022-08-01T22:02:43.575Z,100472.15
2022-08-01T22:05:13.161Z,100468.79
2022-08-01T22:07:46.178Z,100471.23
2022-08-01T22:10:16.689Z,100474.40
2022-08-01T22:12:45.491Z,100469.58
2022-08-01T22:15:15.304Z,100471.95
2022-08-01T22:17:44.830Z,100475.60
2022-08-01T22:20:16.423Z,100474.81
2022-08-01T22:22:52.298Z,100472.76
2022-08-01T22:25:21.630Z,100474.65
2022-08-01T22:28:06.481Z,100476.23
2022-08-01T22:30:42.196Z,100477.92
2022-08-01T22:33:17.170Z,100484.54
2022-08-01T22:35:49.248Z,100483.75
2022-08-01T22:38:19.015Z,100486.69
2022-08-01T22:40:50.257Z,100492.86
2022-08-01T22:43:25.619Z,100491.77
2022-08-01T22:46:03.788Z,100492.57
2022-08-01T22:48:38.706Z,100495.08
2022-08-01T22:51:12.806Z,100496.02
2022-08-01T22:53:49.228Z,100495.48
2022-08-01T22:56:17.835Z,100491.48
2022-08-01T22:58:47.346Z,100494.38
2022-08-01T23:01:22.027Z,100494.47
2022-08-01T23:03:51.530Z,100496.36
2022-08-01T23:06:24.329Z,100495.85
2022-08-01T23:08:56.234Z,100498.19
2022-08-01T23:11:24.860Z,100494.40
2022-08-01T23:13:53.314Z,100493.56
2022-08-01T23:16:22.509Z,100490.73
2022-08-01T23:18:54.522Z,100497.44
2022-08-01T23:21:23.312Z,100496.25
2022-08-01T23:23:52.304Z,100499.25
2022-08-01T23:26:22.630Z,100503.59
2022-08-01T23:28:51.566Z,100501.49
2022-08-01T23:31:21.768Z,100499.95
2022-08-01T23:33:55.802Z,100503.09
2022-08-01T23:36:24.240Z,100498.07
2022-08-01T23:38:52.741Z,100496.58
2022-08-01T23:41:21.272Z,100496.63
2022-08-01T23:43:52.426Z,100499.02
2022-08-01T23:46:20.994Z,100499.09
2022-08-01T23:48:49.259Z,100499.45
2022-08-01T23:51:24.686Z,100500.04
2022-08-01T23:53:53.941Z,100504.33
2022-08-01T23:56:25.297Z,100502.31
2022-08-01T23:58:54.091Z,100506.86
